Time;durP1;ratioP1;P1;durP2;ratioP2;P2;SDS_P1;SDS_P2;PMS_P1;PMS_P2;Temp;Humidity;BMP_temperature;BMP_pressure;BME280_temperature;BME280_humidity;BME280_pressure;Samples;Min_cycle;Max_cycle;Signal;HPM_P1;HPM_P2
2022/10/08 00:00:31;;;;;;;6.00;3.77;;;22.50;46.20;;;;;;5102273;28;20437;-81
2022/10/08 00:02:59;;;;;;;3.97;3.57;;;22.50;46.30;;;;;;5103458;28;20453;-82
2022/10/08 00:05:27;;;;;;;6.97;3.87;;;22.50;46.20;;;;;;5112331;28;20424;-82
2022/10/08 00:07:55;;;;;;;4.27;3.50;;;22.50;46.20;;;;;;5119110;28;20467;-81
2022/10/08 00:10:23;;;;;;;6.13;3.40;;;22.50;46.50;;;;;;5118480;28;20418;-81
2022/10/08 00:12:52;;;;;;;6.07;3.70;;;22.40;46.40;;;;;;5119745;28;20434;-81
2022/10/08 00:15:21;;;;;;;5.93;3.37;;;22.40;46.40;;;;;;5118373;28;20455;-81
2022/10/08 00:17:48;;;;;;;7.73;4.27;;;22.50;46.50;;;;;;5119104;28;20428;-81
2022/10/08 00:20:16;;;;;;;7.73;3.77;;;22.40;46.40;;;;;;5110123;28;20456;-81
2022/10/08 00:22:44;;;;;;;6.07;3.47;;;22.30;46.50;;;;;;5119044;28;20664;-81
2022/10/08 00:25:13;;;;;;;5.63;3.53;;;22.40;46.60;;;;;;5121195;28;20444;-81
2022/10/08 00:27:41;;;;;;;6.93;3.23;;;22.40;46.70;;;;;;5120363;28;20479;-81
2022/10/08 00:30:12;;;;;;;6.37;3.33;;;22.40;46.60;;;;;;5120954;28;20410;-80
2022/10/08 00:32:40;;;;;;;6.40;3.37;;;22.30;46.50;;;;;;5126537;28;20468;-81
2022/10/08 00:35:09;;;;;;;4.43;3.20;;;22.30;46.70;;;;;;5122221;28;20454;-81
2022/10/08 00:37:37;;;;;;;5.47;3.00;;;22.30;46.70;;;;;;5118504;28;20447;-81
2022/10/08 00:40:05;;;;;;;7.10;3.27;;;22.30;46.70;;;;;;5116566;28;20446;-81
2022/10/08 00:42:33;;;;;;;5.13;3.50;;;22.30;46.70;;;;;;5120942;28;20442;-81
2022/10/08 00:45:01;;;;;;;6.20;3.03;;;22.30;46.80;;;;;;5121118;28;20443;-81
2022/10/08 00:47:35;;;;;;;4.60;3.17;;;22.30;46.80;;;;;;5120347;28;20467;-81
2022/10/08 00:50:05;;;;;;;3.57;3.07;;;22.30;46.70;;;;;;5120504;28;20408;-81
2022/10/08 00:52:34;;;;;;;4.87;3.23;;;22.20;46.80;;;;;;5119356;28;20464;-81
2022/10/08 00:55:05;;;;;;;7.47;3.30;;;22.20;46.90;;;;;;5112985;28;20437;-81
2022/10/08 00:57:34;;;;;;;3.83;3.10;;;22.30;46.90;;;;;;5119979;28;20420;-81
2022/10/08 01:00:04;;;;;;;6.80;3.87;;;22.30;46.90;;;;;;5119858;28;20447;-81
2022/10/08 01:02:33;;;;;;;3.93;3.10;;;22.30;47.00;;;;;;5120085;28;20455;-81
2022/10/08 01:05:01;;;;;;;7.03;2.93;;;22.20;46.90;;;;;;5119237;28;20410;-82
2022/10/08 01:07:31;;;;;;;6.00;3.80;;;22.30;47.00;;;;;;5117740;28;20474;-81
2022/10/08 01:10:01;;;;;;;3.90;2.93;;;22.20;47.10;;;;;;5116802;28;20452;-81
2022/10/08 01:12:36;;;;;;;5.07;2.83;;;22.10;47.10;;;;;;5117111;28;20490;-81
2022/10/08 01:15:09;;;;;;;4.37;3.30;;;22.10;47.00;;;;;;5098596;28;20459;-81
2022/10/08 01:17:40;;;;;;;4.63;2.80;;;22.10;47.30;;;;;;5105758;28;20426;-81
2022/10/08 01:20:34;;;;;;;7.40;3.03;;;22.10;47.30;;;;;;5111942;28;20425;-81
2022/10/08 01:23:14;;;;;;;5.33;2.93;;;22.10;47.20;;;;;;5103407;28;20510;-81
2022/10/08 01:25:47;;;;;;;5.37;3.20;;;22.10;47.20;;;;;;5113726;28;20443;-81
2022/10/08 01:28:18;;;;;;;4.67;3.20;;;22.10;47.40;;;;;;5109951;28;20455;-81
2022/10/08 01:30:49;;;;;;;5.47;2.97;;;22.10;47.50;;;;;;5104295;28;20461;-81
2022/10/08 01:33:19;;;;;;;4.13;3.30;;;22.10;47.50;;;;;;5111269;28;20455;-81
2022/10/08 01:35:50;;;;;;;4.23;3.00;;;22.20;47.50;;;;;;5117436;28;20459;-81
2022/10/08 01:38:18;;;;;;;3.77;2.97;;;22.10;48.10;;;;;;5119172;28;20427;-81
2022/10/08 01:40:46;;;;;;;3.33;3.00;;;22.10;47.60;;;;;;5119886;28;20468;-81
2022/10/08 01:43:17;;;;;;;6.03;3.03;;;22.10;47.60;;;;;;5105158;28;20471;-80
2022/10/08 01:45:48;;;;;;;6.37;3.33;;;22.10;47.60;;;;;;5115213;28;20455;-81
2022/10/08 01:48:20;;;;;;;5.00;3.20;;;22.10;47.60;;;;;;5113751;28;20475;-81
2022/10/08 01:50:52;;;;;;;4.23;3.50;;;22.10;47.70;;;;;;5122944;28;20460;-81
2022/10/08 01:53:21;;;;;;;5.20;3.47;;;22.20;47.80;;;;;;5123360;28;20416;-82
2022/10/08 01:55:50;;;;;;;5.53;4.00;;;22.20;47.80;;;;;;5123007;28;20463;-81
2022/10/08 01:58:22;;;;;;;6.67;3.87;;;22.10;47.80;;;;;;5119194;28;20434;-81
2022/10/08 02:00:50;;;;;;;4.23;3.30;;;22.10;47.80;;;;;;5107045;28;20467;-81
2022/10/08 02:03:18;;;;;;;4.43;3.73;;;22.10;47.80;;;;;;5120979;28;20426;-81
2022/10/08 02:05:49;;;;;;;4.97;3.70;;;22.10;47.90;;;;;;5118513;28;20464;-81
2022/10/08 02:08:17;;;;;;;5.20;3.87;;;22.20;48.00;;;;;;5119588;28;20478;-81
2022/10/08 02:10:44;;;;;;;6.07;4.00;;;22.20;48.00;;;;;;5121438;28;20426;-81
2022/10/08 02:13:12;;;;;;;6.30;3.70;;;22.20;48.10;;;;;;5122104;28;20458;-81
2022/10/08 02:15:44;;;;;;;5.73;3.80;;;22.10;47.90;;;;;;5117114;28;20504;-81
2022/10/08 02:18:13;;;;;;;5.97;3.97;;;22.20;48.10;;;;;;5117430;28;20453;-81
2022/10/08 02:20:43;;;;;;;7.77;4.40;;;22.10;48.10;;;;;;5121816;28;20463;-81
2022/10/08 02:23:17;;;;;;;6.10;3.90;;;22.10;48.10;;;;;;5111037;28;20457;-81
2022/10/08 02:25:48;;;;;;;7.17;3.83;;;22.10;48.20;;;;;;5114345;28;20428;-82
2022/10/08 02:28:19;;;;;;;8.03;4.00;;;22.20;48.20;;;;;;5109532;28;20479;-82
2022/10/08 02:30:51;;;;;;;7.20;4.47;;;22.10;48.10;;;;;;5114412;28;20477;-82
2022/10/08 02:33:22;;;;;;;6.53;4.23;;;22.20;48.20;;;;;;5119409;28;20456;-82
2022/10/08 02:35:51;;;;;;;6.77;4.17;;;22.20;48.20;;;;;;5119001;27;20452;-83
2022/10/08 02:38:21;;;;;;;5.37;3.60;;;22.20;48.40;;;;;;5118422;28;20451;-83
2022/10/08 02:40:50;;;;;;;4.80;3.83;;;22.20;49.00;;;;;;5121925;28;20422;-84
2022/10/08 02:43:20;;;;;;;5.53;3.80;;;22.20;48.40;;;;;;5122646;28;20434;-83
2022/10/08 02:45:52;;;;;;;4.37;3.87;;;22.20;48.30;;;;;;5122711;28;20436;-84
2022/10/08 02:48:23;;;;;;;3.53;3.23;;;22.10;48.30;;;;;;5122316;28;20521;-84
2022/10/08 02:50:51;;;;;;;5.00;3.93;;;22.20;48.50;;;;;;5122743;28;20460;-82
2022/10/08 02:53:18;;;;;;;7.13;4.70;;;22.20;48.50;;;;;;5119017;28;20844;-83
2022/10/08 02:55:49;;;;;;;5.17;4.23;;;22.10;48.40;;;;;;5119167;28;20475;-84
2022/10/08 02:58:17;;;;;;;7.57;4.20;;;22.20;48.60;;;;;;5122325;28;20414;-84
2022/10/08 03:00:49;;;;;;;5.37;4.13;;;22.10;48.60;;;;;;5119569;28;20442;-84
2022/10/08 03:03:21;;;;;;;7.53;4.17;;;22.20;48.60;;;;;;5113951;28;20486;-84
2022/10/08 03:05:51;;;;;;;5.60;4.30;;;22.20;48.60;;;;;;5122336;28;20424;-84
2022/10/08 03:08:19;;;;;;;5.10;4.30;;;22.10;48.50;;;;;;5113935;28;20475;-84
2022/10/08 03:10:47;;;;;;;5.90;3.80;;;22.10;48.40;;;;;;5122402;28;20459;-85
2022/10/08 03:13:14;;;;;;;5.17;3.90;;;22.10;48.70;;;;;;5121757;28;20778;-84
2022/10/08 03:15:43;;;;;;;5.90;3.60;;;22.10;48.60;;;;;;5117235;28;20517;-85
2022/10/08 03:18:11;;;;;;;3.47;3.17;;;22.20;48.60;;;;;;5112322;28;20426;-84
2022/10/08 03:20:45;;;;;;;6.03;3.93;;;22.10;48.70;;;;;;5113947;28;20921;-84
2022/10/08 03:23:14;;;;;;;5.50;4.33;;;22.10;48.70;;;;;;5116110;28;20506;-83
2022/10/08 03:25:42;;;;;;;4.43;3.57;;;22.10;48.80;;;;;;5115634;28;20433;-84
2022/10/08 03:28:10;;;;;;;4.70;3.83;;;22.10;48.90;;;;;;5118417;28;20451;-84
2022/10/08 03:30:38;;;;;;;4.43;3.90;;;22.10;48.90;;;;;;5110837;28;20486;-84
2022/10/08 03:33:06;;;;;;;5.60;3.90;;;22.10;48.80;;;;;;5125977;28;20394;-84
2022/10/08 03:35:34;;;;;;;5.80;3.83;;;22.10;48.80;;;;;;5112877;28;20444;-85
2022/10/08 03:38:03;;;;;;;5.63;3.80;;;22.10;48.90;;;;;;5111367;28;20444;-83
2022/10/08 03:40:31;;;;;;;4.33;3.57;;;22.10;49.00;;;;;;5113583;28;20403;-83
2022/10/08 03:42:59;;;;;;;4.53;3.90;;;22.10;49.00;;;;;;5099189;28;20426;-83
2022/10/08 03:45:26;;;;;;;5.80;3.87;;;22.10;48.90;;;;;;5109721;28;20423;-83
2022/10/08 03:47:54;;;;;;;5.50;4.30;;;22.10;49.10;;;;;;5113875;28;20398;-84
2022/10/08 03:50:22;;;;;;;7.73;4.03;;;22.00;49.00;;;;;;5104171;28;20427;-84
2022/10/08 03:52:50;;;;;;;5.40;3.87;;;22.00;49.10;;;;;;5111654;28;20437;-84
2022/10/08 03:55:20;;;;;;;6.17;4.53;;;22.00;49.10;;;;;;5115316;28;20426;-84
2022/10/08 03:57:48;;;;;;;8.83;3.77;;;22.00;49.10;;;;;;5115328;28;20444;-84
2022/10/08 04:00:16;;;;;;;4.90;3.80;;;22.00;49.30;;;;;;5115570;28;20440;-84
2022/10/08 04:02:47;;;;;;;5.17;3.90;;;22.00;49.30;;;;;;5115568;28;20460;-84
2022/10/08 04:05:15;;;;;;;5.50;4.30;;;22.00;49.20;;;;;;5109700;28;20452;-84
2022/10/08 04:07:43;;;;;;;5.13;3.97;;;22.00;49.30;;;;;;5115866;28;20447;-84
2022/10/08 04:10:11;;;;;;;6.43;3.80;;;22.00;49.30;;;;;;5109813;28;20449;-83
2022/10/08 04:12:41;;;;;;;3.70;3.40;;;22.00;49.30;;;;;;5113907;28;20499;-84
2022/10/08 04:15:10;;;;;;;4.43;3.70;;;22.00;49.30;;;;;;5102837;28;20448;-84
2022/10/08 04:17:38;;;;;;;6.40;3.90;;;22.00;49.40;;;;;;5115803;28;20429;-84
2022/10/08 04:20:07;;;;;;;6.47;4.07;;;22.00;49.50;;;;;;5118188;28;20428;-84
2022/10/08 04:22:35;;;;;;;4.80;3.77;;;22.00;49.50;;;;;;5116189;28;20479;-83
2022/10/08 04:25:03;;;;;;;4.33;3.63;;;22.00;49.50;;;;;;5120403;28;20444;-84
2022/10/08 04:27:31;;;;;;;4.40;3.83;;;22.00;49.50;;;;;;5122545;28;20421;-84
2022/10/08 04:30:00;;;;;;;4.17;3.67;;;22.00;49.60;;;;;;5122786;28;20467;-84
2022/10/08 04:32:28;;;;;;;3.90;3.50;;;21.90;49.50;;;;;;5123128;28;20436;-84
2022/10/08 04:34:56;;;;;;;6.83;3.87;;;21.90;49.60;;;;;;5119061;28;20465;-83
2022/10/08 04:37:24;;;;;;;6.43;3.53;;;21.90;49.60;;;;;;5114773;28;20426;-84
2022/10/08 04:39:51;;;;;;;4.97;3.50;;;21.90;49.60;;;;;;5101523;28;20407;-84
2022/10/08 04:42:20;;;;;;;4.83;3.73;;;21.90;49.60;;;;;;5109568;28;20486;-82
2022/10/08 04:44:47;;;;;;;3.80;3.50;;;21.90;49.60;;;;;;5123585;28;20442;-84
2022/10/08 04:47:17;;;;;;;5.70;3.53;;;21.80;49.70;;;;;;5124062;28;20930;-82
2022/10/08 04:49:45;;;;;;;5.30;3.90;;;21.80;49.80;;;;;;5124073;28;20438;-84
2022/10/08 04:52:15;;;;;;;4.73;4.07;;;21.80;49.80;;;;;;5116357;28;20475;-83
2022/10/08 04:54:43;;;;;;;6.07;3.90;;;21.80;49.90;;;;;;5115292;28;20427;-83
2022/10/08 04:57:11;;;;;;;6.67;4.13;;;21.70;49.80;;;;;;5118158;28;20454;-84
2022/10/08 04:59:39;;;;;;;6.00;3.93;;;21.70;49.90;;;;;;5122604;28;20434;-82
2022/10/08 05:02:27;;;;;;;4.00;3.60;;;21.70;49.90;;;;;;5117396;28;20500;-83
2022/10/08 05:04:55;;;;;;;5.77;4.17;;;21.70;50.00;;;;;;5103103;28;20906;-84
2022/10/08 05:07:24;;;;;;;4.50;3.80;;;21.60;50.10;;;;;;5112859;28;20440;-84
2022/10/08 05:09:53;;;;;;;4.17;3.60;;;21.60;50.20;;;;;;5110506;28;20472;-83
2022/10/08 05:12:21;;;;;;;9.60;4.20;;;21.60;50.10;;;;;;5113349;28;20442;-83
2022/10/08 05:14:49;;;;;;;4.30;3.80;;;21.60;50.20;;;;;;5113011;28;20448;-84
2022/10/08 05:17:17;;;;;;;4.60;3.00;;;21.60;50.20;;;;;;5122619;28;20436;-84
2022/10/08 05:19:46;;;;;;;7.53;3.90;;;21.60;50.40;;;;;;5122540;28;20440;-84
2022/10/08 05:22:14;;;;;;;4.80;3.60;;;21.50;50.30;;;;;;5121521;28;20495;-85
2022/10/08 05:24:42;;;;;;;3.13;2.93;;;21.50;50.40;;;;;;5120805;28;20958;-84
2022/10/08 05:27:10;;;;;;;4.50;3.73;;;21.50;50.40;;;;;;5126665;28;20435;-84
2022/10/08 05:29:38;;;;;;;3.90;3.50;;;21.50;50.50;;;;;;5126801;28;20475;-85
2022/10/08 05:32:06;;;;;;;7.83;3.80;;;21.50;50.60;;;;;;5121323;28;20467;-85
2022/10/08 05:34:34;;;;;;;3.43;3.13;;;21.50;50.40;;;;;;5113879;28;20449;-83
2022/10/08 05:37:04;;;;;;;3.43;3.10;;;21.40;50.50;;;;;;5125500;28;20406;-83
2022/10/08 05:39:31;;;;;;;3.40;3.10;;;21.40;50.50;;;;;;5119435;28;20423;-84
2022/10/08 05:41:59;;;;;;;4.97;3.60;;;21.40;50.60;;;;;;5125519;28;20826;-85
2022/10/08 05:44:27;;;;;;;3.47;3.17;;;21.40;50.70;;;;;;5123108;28;20522;-84
2022/10/08 05:46:55;;;;;;;3.63;3.00;;;21.40;50.70;;;;;;5117358;28;20470;-85
2022/10/08 05:49:23;;;;;;;4.73;3.47;;;21.40;50.80;;;;;;5126018;28;21004;-84
2022/10/08 05:51:51;;;;;;;6.73;2.83;;;21.40;50.70;;;;;;5123747;28;20434;-84
2022/10/08 05:54:21;;;;;;;3.47;3.17;;;21.40;50.80;;;;;;5120908;28;20451;-84
2022/10/08 05:56:49;;;;;;;3.93;2.90;;;21.40;50.80;;;;;;5118692;28;20452;-85
2022/10/08 05:59:18;;;;;;;4.57;3.80;;;21.40;50.90;;;;;;5125391;28;20435;-85
2022/10/08 06:01:47;;;;;;;5.60;3.10;;;21.30;50.80;;;;;;5116033;28;20479;-85
2022/10/08 06:04:15;;;;;;;6.53;2.87;;;21.30;50.80;;;;;;5119844;28;20410;-84
2022/10/08 06:06:43;;;;;;;3.20;2.90;;;21.30;50.80;;;;;;5125619;28;20443;-84
2022/10/08 06:09:12;;;;;;;5.53;3.17;;;21.30;51.00;;;;;;5121343;28;20445;-83
2022/10/08 06:11:42;;;;;;;3.33;2.93;;;21.30;50.90;;;;;;5123509;28;20465;-83
2022/10/08 06:14:10;;;;;;;2.63;2.43;;;21.30;51.10;;;;;;5122077;28;20466;-83
2022/10/08 06:16:38;;;;;;;4.40;2.90;;;21.30;51.00;;;;;;5125390;28;20439;-84
2022/10/08 06:19:07;;;;;;;3.47;2.90;;;21.30;51.10;;;;;;5114360;28;20439;-84
2022/10/08 06:21:36;;;;;;;2.90;2.70;;;21.30;51.00;;;;;;5122291;28;20475;-82
2022/10/08 06:24:04;;;;;;;3.77;2.63;;;21.30;51.10;;;;;;5118102;28;20452;-84
2022/10/08 06:26:34;;;;;;;4.00;2.80;;;21.30;51.10;;;;;;5110795;28;20456;-83
2022/10/08 06:29:05;;;;;;;4.10;2.90;;;21.30;51.00;;;;;;5116065;28;20441;-85
2022/10/08 06:31:33;;;;;;;2.87;2.67;;;21.30;51.20;;;;;;5113259;28;20468;-83
2022/10/08 06:34:03;;;;;;;4.20;2.90;;;21.30;51.20;;;;;;5117630;28;20441;-84
2022/10/08 06:36:31;;;;;;;3.10;2.73;;;21.30;51.20;;;;;;5108642;28;20444;-83
2022/10/08 06:39:00;;;;;;;3.27;2.97;;;21.30;51.10;;;;;;5112308;28;20459;-85
2022/10/08 06:41:29;;;;;;;2.97;2.53;;;21.30;51.20;;;;;;5120813;28;20468;-83
2022/10/08 06:43:57;;;;;;;5.10;2.97;;;21.30;51.20;;;;;;5110648;28;20443;-83
2022/10/08 06:46:26;;;;;;;3.47;3.17;;;21.30;51.10;;;;;;5108478;28;20503;-84
2022/10/08 06:48:54;;;;;;;3.30;2.90;;;21.40;51.20;;;;;;5103726;28;20447;-82
2022/10/08 06:51:22;;;;;;;4.40;3.40;;;21.30;51.00;;;;;;5106289;28;20481;-84
2022/10/08 06:53:52;;;;;;;3.73;2.60;;;21.30;51.20;;;;;;5111706;28;20460;-84
2022/10/08 06:56:19;;;;;;;4.00;2.83;;;21.30;51.30;;;;;;5107437;28;20464;-82
2022/10/08 06:58:47;;;;;;;3.13;2.90;;;21.30;51.30;;;;;;5108653;28;20441;-81
2022/10/08 07:01:17;;;;;;;3.93;3.00;;;21.30;51.20;;;;;;5111673;28;20451;-83
2022/10/08 07:03:50;;;;;;;4.80;3.20;;;21.30;51.30;;;;;;5109626;28;20444;-85
2022/10/08 07:06:18;;;;;;;4.20;2.67;;;21.30;51.20;;;;;;5114229;28;20448;-84
2022/10/08 07:08:46;;;;;;;3.60;3.27;;;21.40;51.20;;;;;;5119277;28;20444;-84
2022/10/08 07:11:15;;;;;;;2.80;2.60;;;21.30;51.20;;;;;;5119759;28;20475;-84
2022/10/08 07:13:44;;;;;;;7.10;3.17;;;21.30;51.30;;;;;;5108003;28;20457;-83
2022/10/08 07:16:13;;;;;;;3.27;2.77;;;21.40;51.20;;;;;;5113344;28;20458;-85
2022/10/08 07:18:49;;;;;;;3.40;2.97;;;21.40;51.30;;;;;;5115574;28;20430;-84
2022/10/08 07:21:18;;;;;;;3.13;2.93;;;21.40;51.10;;;;;;5102413;28;20479;-84
2022/10/08 07:23:45;;;;;;;3.00;2.80;;;21.40;51.20;;;;;;5111521;28;20419;-83
2022/10/08 07:26:14;;;;;;;3.90;2.80;;;21.40;51.40;;;;;;5111275;28;20463;-80
2022/10/08 07:28:44;;;;;;;3.63;2.70;;;21.40;51.20;;;;;;5118370;28;20431;-82
2022/10/08 07:31:14;;;;;;;4.23;3.10;;;21.40;51.10;;;;;;5114566;28;20479;-84
2022/10/08 07:33:42;;;;;;;5.37;3.40;;;21.50;51.30;;;;;;5118898;28;20943;-81
2022/10/08 07:36:12;;;;;;;5.23;3.10;;;21.50;51.30;;;;;;5120168;28;20438;-83
2022/10/08 07:38:40;;;;;;;3.73;3.20;;;21.50;51.20;;;;;;5109505;28;20448;-83
2022/10/08 07:41:09;;;;;;;3.57;3.27;;;21.50;51.20;;;;;;5120680;28;20455;-81
2022/10/08 07:43:39;;;;;;;3.60;3.27;;;21.50;51.20;;;;;;5114514;28;20424;-84
2022/10/08 07:46:08;;;;;;;6.03;3.53;;;21.60;51.20;;;;;;5116410;28;20440;-84
2022/10/08 07:48:36;;;;;;;3.70;3.00;;;21.60;51.20;;;;;;5120325;28;20428;-84
2022/10/08 07:51:13;;;;;;;7.40;3.40;;;21.60;51.20;;;;;;5117231;28;20450;-83
2022/10/08 07:53:41;;;;;;;4.27;3.10;;;21.60;51.20;;;;;;5120055;28;20451;-83
2022/10/08 07:56:09;;;;;;;5.63;3.50;;;21.70;51.40;;;;;;5117062;28;20460;-83
2022/10/08 07:58:37;;;;;;;6.80;4.13;;;21.70;50.80;;;;;;5119791;28;20410;-81
2022/10/08 08:01:07;;;;;;;7.10;3.93;;;21.80;51.10;;;;;;5118751;28;20422;-82
2022/10/08 08:03:35;;;;;;;4.87;4.03;;;21.90;51.20;;;;;;5120492;28;20406;-83
2022/10/08 08:06:03;;;;;;;6.43;4.20;;;22.10;51.20;;;;;;5118458;28;20425;-82
2022/10/08 08:08:33;;;;;;;8.20;4.00;;;22.20;51.40;;;;;;5105061;28;20432;-82
2022/10/08 08:11:03;;;;;;;6.97;3.10;;;22.40;51.30;;;;;;5119200;28;20483;-84
2022/10/08 08:13:32;;;;;;;10.53;2.93;;;22.40;50.00;;;;;;5118292;28;20435;-80
2022/10/08 08:16:05;;;;;;;12.00;3.17;;;20.80;53.50;;;;;;5118734;28;20432;-79
2022/10/08 08:18:34;;;;;;;14.50;4.97;;;20.30;54.20;;;;;;5120180;28;20447;-79
2022/10/08 08:21:04;;;;;;;12.10;3.30;;;20.00;56.20;;;;;;5119322;28;20457;-79
2022/10/08 08:23:33;;;;;;;7.97;2.37;;;20.00;55.60;;;;;;5110511;28;20415;-79
2022/10/08 08:26:02;;;;;;;23.33;9.30;;;19.70;55.90;;;;;;5097605;28;20445;-80
2022/10/08 08:28:29;;;;;;;10.20;3.33;;;19.60;55.40;;;;;;5105030;28;20452;-79
2022/10/08 08:31:07;;;;;;;15.90;3.77;;;19.30;55.70;;;;;;5119488;28;20495;-79
2022/10/08 08:33:35;;;;;;;9.20;3.43;;;19.30;56.50;;;;;;5119284;28;20428;-79
2022/10/08 08:36:03;;;;;;;9.80;2.10;;;19.40;56.20;;;;;;5118517;28;20406;-79
2022/10/08 08:38:33;;;;;;;3.90;2.43;;;19.10;56.90;;;;;;5118496;28;20432;-79
2022/10/08 08:41:06;;;;;;;12.03;2.90;;;19.10;58.00;;;;;;5104335;28;20465;-79
2022/10/08 08:43:40;;;;;;;6.00;2.30;;;20.40;59.60;;;;;;5105333;28;20465;-79
2022/10/08 08:46:08;;;;;;;6.00;2.17;;;21.60;56.90;;;;;;5108474;28;20429;-79
2022/10/08 08:48:36;;;;;;;10.00;2.77;;;22.50;54.90;;;;;;5107348;28;20426;-80
2022/10/08 08:51:05;;;;;;;7.60;2.90;;;23.10;53.50;;;;;;5119752;28;20578;-79
2022/10/08 08:53:34;;;;;;;6.20;2.50;;;23.80;52.60;;;;;;5116410;28;20420;-79
2022/10/08 08:56:03;;;;;;;9.00;3.73;;;24.30;51.40;;;;;;5115130;28;20455;-79
2022/10/08 08:58:34;;;;;;;8.67;2.80;;;24.60;50.70;;;;;;5116026;28;20419;-80
2022/10/08 09:01:06;;;;;;;4.17;2.53;;;24.80;50.10;;;;;;5114850;28;20476;-80
2022/10/08 09:03:38;;;;;;;9.00;2.83;;;24.90;50.00;;;;;;5114135;28;20462;-79
2022/10/08 09:06:09;;;;;;;4.80;2.60;;;25.00;49.90;;;;;;5118072;28;20427;-80
2022/10/08 09:08:40;;;;;;;6.90;2.33;;;25.10;49.80;;;;;;5115822;28;20456;-81
2022/10/08 09:11:12;;;;;;;4.80;2.70;;;25.20;49.40;;;;;;5110287;28;20532;-80
2022/10/08 09:13:40;;;;;;;4.90;2.73;;;25.20;49.60;;;;;;5099141;28;20998;-79
2022/10/08 09:16:10;;;;;;;7.43;2.83;;;25.30;49.40;;;;;;5100472;28;20452;-79
2022/10/08 09:18:38;;;;;;;6.70;2.87;;;25.40;49.30;;;;;;5103244;28;20448;-80
2022/10/08 09:21:06;;;;;;;5.30;2.40;;;25.50;49.40;;;;;;5106541;28;20450;-79
2022/10/08 09:23:34;;;;;;;8.37;2.63;;;25.60;49.30;;;;;;5108455;28;20414;-81
2022/10/08 09:26:09;;;;;;;8.03;2.80;;;25.60;49.10;;;;;;5113368;28;20422;-80
2022/10/08 09:28:38;;;;;;;5.20;2.50;;;25.70;49.30;;;;;;5108009;28;20428;-81
2022/10/08 09:31:12;;;;;;;4.70;2.40;;;25.90;49.40;;;;;;5115390;28;20473;-80
2022/10/08 09:33:40;;;;;;;7.60;3.03;;;26.00;49.10;;;;;;5111268;28;20531;-81
2022/10/08 09:36:11;;;;;;;5.20;2.70;;;26.10;49.40;;;;;;5109324;28;20411;-80
2022/10/08 09:38:40;;;;;;;4.50;2.70;;;26.30;49.10;;;;;;5105248;28;20427;-78
2022/10/08 09:41:17;;;;;;;10.63;2.43;;;26.50;49.00;;;;;;5105092;28;20449;-79
2022/10/08 09:43:47;;;;;;;6.60;2.30;;;26.80;48.60;;;;;;5107614;28;20530;-80
2022/10/08 09:46:28;;;;;;;3.77;2.60;;;27.00;48.30;;;;;;5112973;28;20451;-80
2022/10/08 09:52:20;;;;;;;6.73;2.70;;;27.00;47.30;;;;;;5097770;28;20537;-80
2022/10/08 09:55:02;;;;;;;2.40;2.20;;;27.20;47.50;;;;;;5099961;28;20459;-79
2022/10/08 09:57:34;;;;;;;3.90;2.73;;;27.40;47.30;;;;;;5103769;28;20434;-79
2022/10/08 10:00:04;;;;;;;4.30;2.30;;;27.60;47.00;;;;;;5102314;28;20455;-78
2022/10/08 10:02:33;;;;;;;3.37;2.40;;;27.70;46.80;;;;;;5101236;28;20510;-77
2022/10/08 10:05:02;;;;;;;4.57;2.57;;;27.80;46.20;;;;;;5096890;28;20531;-77
2022/10/08 10:07:39;;;;;;;3.47;2.30;;;27.90;46.40;;;;;;5104286;28;20411;-78
2022/10/08 10:10:21;;;;;;;3.80;2.40;;;28.00;46.00;;;;;;5119338;28;20474;-80
2022/10/08 10:12:57;;;;;;;2.93;2.37;;;28.20;46.00;;;;;;5117399;28;20474;-79
2022/10/08 10:15:39;;;;;;;2.60;2.20;;;28.20;46.00;;;;;;5122733;28;20455;-79
2022/10/08 10:18:12;;;;;;;3.10;2.50;;;28.20;45.50;;;;;;5120906;28;20448;-80
2022/10/08 10:20:42;;;;;;;4.03;2.30;;;28.20;45.60;;;;;;5108716;28;20453;-79
2022/10/08 10:23:14;;;;;;;3.43;2.40;;;28.20;45.70;;;;;;5104678;28;20470;-78
2022/10/08 10:25:48;;;;;;;3.43;2.00;;;28.30;45.80;;;;;;5108155;28;20506;-79
2022/10/08 10:28:26;;;;;;;2.93;2.50;;;28.30;45.50;;;;;;5112118;28;20536;-80
2022/10/08 10:31:00;;;;;;;3.37;2.50;;;28.30;45.50;;;;;;5103885;28;20490;-80
2022/10/08 10:33:29;;;;;;;3.93;2.80;;;28.20;45.20;;;;;;5103139;28;20445;-80
2022/10/08 10:36:00;;;;;;;4.83;2.40;;;28.20;45.40;;;;;;5106315;28;20456;-77
2022/10/08 10:38:35;;;;;;;2.77;2.50;;;28.20;45.40;;;;;;5107756;28;20453;-78
2022/10/08 10:41:11;;;;;;;3.93;2.77;;;28.30;45.60;;;;;;5106743;28;20467;-77
2022/10/08 10:43:47;;;;;;;3.20;2.70;;;28.30;45.50;;;;;;5109842;28;20448;-80
2022/10/08 10:46:33;;;;;;;12.13;2.47;;;28.50;45.80;;;;;;5108115;28;21069;-81
2022/10/08 10:49:01;;;;;;;3.37;2.50;;;28.70;45.20;;;;;;5110330;28;20530;-82
2022/10/08 10:51:40;;;;;;;4.50;2.00;;;28.70;45.10;;;;;;5109614;28;20471;-81
2022/10/08 10:54:16;;;;;;;2.93;2.30;;;28.90;44.80;;;;;;5105724;28;20452;-81
2022/10/08 10:56:47;;;;;;;2.40;2.20;;;28.90;44.30;;;;;;5103447;28;20455;-81
2022/10/08 10:59:23;;;;;;;2.90;2.30;;;28.90;44.40;;;;;;5105890;28;20455;-82
2022/10/08 11:01:53;;;;;;;2.30;2.00;;;28.90;44.40;;;;;;5108415;28;20485;-81
2022/10/08 11:04:24;;;;;;;3.30;2.53;;;29.10;44.50;;;;;;5111805;28;20471;-79
2022/10/08 11:06:59;;;;;;;2.00;1.90;;;29.10;43.90;;;;;;5106682;28;20447;-80
2022/10/08 11:09:32;;;;;;;6.90;2.43;;;30.20;43.70;;;;;;5105033;28;20450;-79
2022/10/08 11:12:04;;;;;;;4.50;2.30;;;31.40;41.40;;;;;;5103422;28;20484;-82
2022/10/08 11:14:37;;;;;;;3.33;2.13;;;32.50;39.70;;;;;;5108194;28;20456;-81
2022/10/08 11:17:11;;;;;;;3.40;2.40;;;33.50;37.80;;;;;;5102401;28;20448;-80
2022/10/08 11:19:44;;;;;;;2.13;2.03;;;34.20;36.40;;;;;;5108880;28;20440;-81
2022/10/08 11:22:15;;;;;;;2.20;2.10;;;34.80;35.20;;;;;;5109648;28;20469;-79
2022/10/08 11:24:53;;;;;;;1.70;1.60;;;35.50;34.40;;;;;;5108760;28;20440;-82
2022/10/08 11:27:24;;;;;;;2.27;2.10;;;36.10;33.40;;;;;;5112578;28;20466;-81
2022/10/08 11:29:56;;;;;;;1.90;1.80;;;36.50;32.50;;;;;;5108455;28;20447;-80
2022/10/08 11:32:25;;;;;;;2.20;1.90;;;36.90;31.80;;;;;;5114932;28;20475;-83
2022/10/08 11:34:56;;;;;;;1.90;1.80;;;37.10;31.40;;;;;;5101576;28;20444;-81
2022/10/08 11:37:26;;;;;;;1.87;1.80;;;37.30;30.90;;;;;;5105908;28;20451;-80
2022/10/08 11:39:59;;;;;;;2.10;2.00;;;37.40;30.70;;;;;;5112562;28;20439;-82
2022/10/08 11:42:31;;;;;;;2.10;2.00;;;37.70;30.50;;;;;;5106451;28;20462;-81
2022/10/08 11:45:32;;;;;;;2.03;1.93;;;37.80;30.20;;;;;;5114713;28;20535;-82
2022/10/08 11:48:00;;;;;;;3.67;1.60;;;38.30;29.70;;;;;;5051771;28;20860;-82
2022/10/08 11:50:30;;;;;;;2.20;2.00;;;38.00;29.70;;;;;;5114700;28;20458;-80
2022/10/08 11:53:01;;;;;;;2.23;2.13;;;36.30;30.40;;;;;;5116047;28;20584;-81
2022/10/08 11:55:30;;;;;;;5.90;2.07;;;34.60;32.90;;;;;;5116836;28;20508;-80
2022/10/08 11:57:59;;;;;;;2.10;2.00;;;33.20;35.10;;;;;;5117043;28;20439;-80
2022/10/08 12:00:41;;;;;;;6.53;2.60;;;32.10;37.00;;;;;;5103459;28;20484;-78
2022/10/08 12:03:20;;;;;;;2.43;2.23;;;31.20;38.90;;;;;;5105236;28;20443;-79
2022/10/08 12:05:51;;;;;;;2.90;2.03;;;30.70;39.80;;;;;;5095134;28;20527;-79
2022/10/08 12:08:47;;;;;;;2.77;1.70;;;32.70;39.10;;;;;;5096423;28;20444;-81
2022/10/08 12:11:47;;;;;;;2.33;1.70;;;34.40;34.80;;;;;;5111463;28;20471;-80
2022/10/08 12:14:32;;;;;;;1.93;1.83;;;33.90;35.40;;;;;;5111781;28;20484;-80
2022/10/08 12:17:11;;;;;;;2.70;1.80;;;33.20;36.00;;;;;;5107913;28;20436;-80
2022/10/08 12:20:07;;;;;;;2.27;1.87;;;34.10;34.10;;;;;;5115069;28;20567;-79
2022/10/08 12:22:41;;;;;;;2.07;1.97;;;34.70;35.10;;;;;;5108731;28;20452;-81
2022/10/08 12:25:37;;;;;;;1.70;1.57;;;36.20;32.60;;;;;;5117265;28;20435;-80
2022/10/08 12:28:54;;;;;;;1.70;1.60;;;37.00;31.10;;;;;;5105013;28;20789;-80
2022/10/08 12:31:40;;;;;;;1.60;1.50;;;37.70;30.10;;;;;;5102695;28;20994;-81
2022/10/08 12:34:16;;;;;;;1.83;1.73;;;38.30;29.70;;;;;;5103568;28;20511;-81
2022/10/08 12:36:51;;;;;;;2.70;1.80;;;38.70;29.20;;;;;;5110362;28;20542;-80
2022/10/08 12:39:24;;;;;;;2.70;2.00;;;38.90;29.10;;;;;;5101504;28;20458;-80
2022/10/08 12:41:57;;;;;;;6.60;1.93;;;38.50;28.50;;;;;;5105819;28;20470;-80
2022/10/08 12:44:34;;;;;;;3.47;2.40;;;38.20;29.30;;;;;;5105543;28;20436;-79
2022/10/08 12:47:04;;;;;;;2.43;2.27;;;36.80;30.00;;;;;;5104150;28;20450;-78
2022/10/08 12:49:35;;;;;;;4.13;2.83;;;35.00;32.50;;;;;;5099672;28;20502;-78
2022/10/08 12:52:05;;;;;;;4.10;2.60;;;33.70;34.60;;;;;;5111912;28;20448;-78
2022/10/08 12:54:33;;;;;;;2.80;2.60;;;33.20;35.70;;;;;;5102955;28;20464;-79
2022/10/08 12:57:01;;;;;;;10.80;3.03;;;32.90;37.10;;;;;;5104089;28;20456;-79
2022/10/08 12:59:31;;;;;;;5.27;3.17;;;33.00;37.80;;;;;;5098649;28;20448;-80
2022/10/08 13:01:59;;;;;;;3.07;2.73;;;32.30;37.30;;;;;;5102694;28;20871;-80
2022/10/08 13:04:28;;;;;;;3.30;3.00;;;33.90;36.60;;;;;;5095380;28;20449;-78
2022/10/08 13:06:58;;;;;;;3.20;3.00;;;33.20;35.60;;;;;;5103272;28;20451;-79